NEODyS-2

Near Earth Objects - Dynamic Site
NEODyS ∴ Observatories ∴ Site 691 ∴ Obs & residuals
Contact »
691  ▹ 
OBSERVATIONS AND RESIDUALS

691-Steward Observatory, Kitt Peak-Spacewatch

Detections | Residuals | Detections & Residuals

[1-200] [201-400] [401-600] [601-800] [801-1000] [1001-1200] [1201-1400] [1401-1600] [1601-1800] [1801-2000] [2001-2200] [2201-2400] [2401-2600] [2601-2800] [2801-3000] [3001-3200] [3201-3400] [3401-3600] [3601-3800] [3801-4000] [4001-4200] [4201-4400] [4401-4600] [4601-4800] [4801-5000] [5001-5200] [5201-5400] [5401-5600] [5601-5800] [5801-6000] [6001-6200] [6201-6400] [6401-6600] [6601-6800] [6801-7000] [7001-7200] [7201-7400] [7401-7600] [7601-7800] [7801-8000] [8001-8200] [8201-8400] [8401-8600] [8601-8800] [8801-9000] [9001-9200] [9201-9400] [9401-9600] [9601-9800] [9801-10000] [10001-10200] [10201-10400] [10401-10600] [10601-10800] [10801-11000] [11001-11200] [11201-11400] [11401-11600] [11601-11800] [11801-12000] [12001-12200] [12201-12400] [12401-12600] [12601-12800] [12801-13000] [13001-13200] [13201-13400] [13401-13600] [13601-13800] [13801-14000] [14001-14200] [14201-14400] [14401-14600] [14601-14800] [14801-15000] [15001-15200] [15201-15400] [15401-15600] [15601-15800] [15801-16000] [16001-16200] [16201-16400] [16401-16600] [16601-16800] [16801-17000] [17001-17200] [17201-17400] [17401-17600] [17601-17800] [17801-18000] [18001-18200] [18201-18400] [18401-18600] [18601-18800] [18801-19000] [19001-19200] [19201-19400] [19401-19600] [19601-19800] [19801-20000] [20001-20200] [20201-20400] [20401-20600] [20601-20800] [20801-21000] [21001-21200] [21201-21400] [21401-21600] [21601-21800] [21801-22000] [22001-22200] [22201-22400] [22401-22600] [22601-22800] [22801-23000] [23001-23200] [23201-23400] [23401-23600] [23601-23800] [23801-24000] [24001-24200] [24201-24400] [24401-24600] [24601-24800] [24801-25000] [25001-25200] [25201-25400] [25401-25600] [25601-25800] [25801-26000] [26001-26200] [26201-26400] [26401-26600] [26601-26800] [26801-27000] [27001-27200] [27201-27400] [27401-27600] [27601-27800] [27801-28000] [28001-28200] [28201-28400] [28401-28600] [28601-28800] [28801-29000] [29001-29200] [29201-29400] [29401-29600] [29601-29800] [29801-30000] [30001-30200] [30201-30400] [30401-30600] [30601-30800] [30801-31000] [31001-31200] [31201-31400] [31401-31600] [31601-31800] [31801-32000] [32001-32200] [32201-32400] [32401-32600] [32601-32800] [32801-33000] [33001-33200] [33201-33400] [33401-33600] [33601-33800] [33801-34000] [34001-34200] [34201-34400] [34401-34600] [34601-34800] [34801-35000] [35001-35200] [35201-35400] [35401-35600] [35601-35800] [35801-36000] [36001-36200] [36201-36400] [36401-36600] [36601-36800] [36801-37000] [37001-37200] [37201-37400] [37401-37600] [37601-37800] [37801-38000] [38001-38200] [38201-38400] [38401-38600] [38601-38800] [38801-39000] [39001-39200] [39201-39400] [39401-39600] [39601-39800] [39801-40000] [40001-40200] [40201-40400] [40401-40600] [40601-40800] [40801-41000] [41001-41200] [41201-41400] [41401-41600] [41601-41800] [41801-42000] [42001-42200] [42201-42400] [42401-42600] [42601-42800] [42801-43000] [43001-43200] [43201-43400] [43401-43600] [43601-43800] [43801-44000] [44001-44200] [44201-44400] [44401-44600] [44601-44800] [44801-45000] [45001-45200] [45201-45400] [45401-45600] [45601-45800] [45801-46000] [46001-46200] [46201-46400] [46401-46600] [46601-46800] [46801-47000] [47001-47200] [47201-47400] [47401-47600] [47601-47800] [47801-48000] [48001-48200] [48201-48400] [48401-48600] [48601-48800] [48801-49000] [49001-49200] [49201-49400] [49401-49600] [49601-49800] [49801-50000] [50001-50200] [50201-50388]

Designation T Tech N Date Right Ascension Declination Apparent Magnitude Star Catalog Site code χ Used A Used M
yr-mo-day precision hr:min:sec precision rms F bias residual deg min sec precision rms F bias residual mag/col rms residual
2000LK10 O C H 2000-06-09.24838 1.000E-05 14:27:58.150 1.500E-01 0.600 F -0.559 1.465 -15° 13' 51.50" 1.000E-01 0.600 F -0.371 1.650 21.2 V 0.70 0.55 b 691 3.64 No Yes
2000LK10 O C H 2000-06-09.25645 1.000E-05 14:27:57.780 1.500E-01 0.600 F -0.559 2.156 -15° 13' 54.20" 1.000E-01 0.600 F -0.371 0.533 21.1 V 0.70 0.45 b 691 3.63 No Yes
1997US2 O C H 2000-06-09.43361 1.000E-05 22:03:06.480 1.500E-01 0.600 F 0.529 2.874 -17° 46' 19.10" 1.000E-01 0.600 F 0.049 0.490 20.9 V 0.70 1.56 b 691 4.78 No Yes
1997US2 O C H 2000-06-09.43836 1.000E-05 22:03:04.880 1.500E-01 0.600 F 0.529 0.817 -17° 46' 28.60" 1.000E-01 0.600 F 0.049 1.176 21.0 V 0.70 1.66 b 691 2.42 Yes Yes
1997US2 O C H 2000-06-09.44301 1.000E-05 22:03:03.440 1.500E-01 0.600 F 0.529 0.618 -17° 46' 39.90" 1.000E-01 0.600 F 0.049 -0.158 21.7 V 0.70 2.36 b 691 1.08 Yes No
2000LK10 O C H 2000-06-10.15990 1.000E-05 14:27:17.090 1.500E-01 0.600 F -0.559 0.000 -15° 17' 03.20" 1.000E-01 0.600 F -0.371 0.608 21.3 V 0.70 0.64 b 691 1.03 Yes Yes
2000LK10 O C H 2000-06-10.16615 1.000E-05 14:27:16.820 1.500E-01 0.600 F -0.559 0.556 -15° 17' 03.90" 1.000E-01 0.600 F -0.371 1.276 21.1 V 0.70 0.44 b 691 2.34 Yes Yes
2000LK10 O C H 2000-06-10.17342 1.000E-05 14:27:16.530 1.500E-01 0.600 F -0.559 1.552 -15° 17' 06.20" 1.000E-01 0.600 F -0.371 0.562 20.5 V 0.70 -0.16 b 691 2.80 Yes Yes
1997US2 O C 2000-06-25.39547 1.000E-05 20:44:16.520 1.500E-01 0.600 F 0.036 0.393 -25° 14' 42.20" 1.000E-01 0.600 F -0.595 0.088 19.7 V 0.70 0.48 b 691 0.69 Yes Yes
1997US2 O C 2000-06-25.39964 1.000E-05 20:44:15.290 1.500E-01 0.600 F 0.036 0.293 -25° 14' 47.20" 1.000E-01 0.600 F -0.595 0.064 19.6 V 0.70 0.38 b 691 0.51 Yes Yes
1997US2 O C 2000-06-25.40388 1.000E-05 20:44:14.040 1.500E-01 0.600 F 0.036 0.201 -25° 14' 52.20" 1.000E-01 0.600 F -0.595 0.118 19.7 V 0.70 0.48 b 691 0.40 Yes Yes
2000LK10 O C 2000-06-26.16317 1.000E-05 14:22:17.800 1.500E-01 0.600 F -0.032 -0.383 -16° 43' 18.50" 1.000E-01 0.600 F -0.553 -0.375 21.0 V 0.70 0.11 b 691 0.90 Yes Yes
2000LK10 O C 2000-06-26.19897 1.000E-05 14:22:17.910 1.500E-01 0.600 F -0.032 -0.296 -16° 43' 33.50" 1.000E-01 0.600 F -0.553 -0.063 21.0 V 0.70 0.11 b 691 0.51 Yes Yes
2000LK10 O C 2000-06-26.23256 1.000E-05 14:22:18.040 1.500E-01 0.600 F -0.032 -0.066 -16° 43' 47.80" 1.000E-01 0.600 F -0.553 -0.131 b 691 0.25 Yes No
1997EH29 O C H 2000-07-02.18713 1.000E-05 12:36:14.120 1.500E-01 0.600 F -0.085 1.087 +10° 07' 44.40" 1.000E-01 0.600 F -0.130 1.532 21.5 V 0.70 -0.38 b 691 3.14 Yes Yes
1997EH29 O C H 2000-07-02.19117 1.000E-05 12:36:14.220 1.500E-01 0.600 F -0.085 1.019 +10° 07' 42.70" 1.000E-01 0.600 F -0.130 1.455 21.7 V 0.70 -0.18 b 691 2.97 Yes Yes
1997EH29 O C H 2000-07-02.19505 1.000E-05 12:36:14.400 1.500E-01 0.600 F -0.085 2.191 +10° 07' 40.80" 1.000E-01 0.600 F -0.130 1.115 21.2 V 0.70 -0.68 b 691 4.09 No Yes
2000LK10 O C H 2000-07-02.20092 1.000E-05 14:24:08.480 1.500E-01 0.600 F 0.185 -0.691 -17° 30' 48.10" 1.000E-01 0.600 F -0.332 0.386 21.4 V 0.70 0.43 b 691 1.35 Yes Yes
2000LK10 O C H 2000-07-02.20490 1.000E-05 14:24:08.690 1.500E-01 0.600 F 0.185 0.940 -17° 30' 49.80" 1.000E-01 0.600 F -0.332 0.683 20.7 V 0.70 -0.27 b 691 1.96 Yes Yes
Zeus O C 2000-07-03.40265 1.000E-05 20:37:48.050 1.500E-01 0.600 F 0.664 0.343 -13° 09' 36.80" 1.000E-01 0.600 F 0.199 -0.022 21.9 V 0.70 1.16 b 691 0.57 Yes Yes
Zeus O C 2000-07-03.42410 1.000E-05 20:37:46.780 1.500E-01 0.600 F 0.664 -0.041 -13° 09' 38.40" 1.000E-01 0.600 F 0.199 0.070 22.1 V 0.70 1.36 b 691 0.13 Yes Yes
Zeus O C 2000-07-03.44545 1.000E-05 20:37:45.590 1.500E-01 0.600 F 0.664 0.652 -13° 09' 40.40" 1.000E-01 0.600 F 0.199 -0.257 21.6 V 0.70 0.86 b 691 1.17 Yes Yes
Zeus O C 2000-07-05.29906 1.000E-05 20:35:59.140 1.500E-01 0.600 F 0.902 -0.515 -13° 12' 15.20" 1.000E-01 0.600 F 0.118 -0.720 22.2 V 0.70 1.49 b 691 1.48 Yes Yes
Zeus O C 2000-07-05.30463 1.000E-05 20:35:58.830 1.500E-01 0.600 F 0.902 -0.214 -13° 12' 15.20" 1.000E-01 0.600 F 0.118 -0.226 21.8 V 0.70 1.09 b 691 0.52 Yes Yes
Zeus O C 2000-07-05.31023 1.000E-05 20:35:58.480 1.500E-01 0.600 F 0.902 -0.469 -13° 12' 15.70" 1.000E-01 0.600 F 0.118 -0.229 22.0 V 0.70 1.29 b 691 0.87 Yes Yes
2000PH8 O C 2000-08-03.25698 1.000E-05 21:05:32.490 1.500E-01 0.600 F -0.394 0.610 -07° 43' 11.30" 1.000E-01 0.600 F 0.012 -0.099 21.4 V 0.70 0.38 b 691 1.27 Yes Yes
2000PH8 O C 2000-08-03.27875 1.000E-05 21:05:34.470 1.500E-01 0.600 F -0.394 -0.092 -07° 42' 46.70" 1.000E-01 0.600 F 0.012 -0.101 21.9 V 0.70 0.88 b 691 0.28 Yes Yes
2000PH8 O C 2000-08-03.30075 1.000E-05 21:05:36.490 1.500E-01 0.600 F -0.394 -0.233 -07° 42' 22.00" 1.000E-01 0.600 F 0.012 -0.348 21.8 V 0.70 0.78 b 691 0.84 Yes Yes
2000PH8 O C H 2000-08-05.46497 1.000E-05 21:09:24.150 1.500E-01 0.600 F -0.087 -0.215 -07° 03' 58.90" 1.000E-01 0.600 F -0.065 -0.134 22.3 V 0.70 1.16 b 691 0.48 Yes Yes
2000PH8 O C H 2000-08-05.47286 1.000E-05 21:09:24.900 1.500E-01 0.600 F -0.087 0.456 -07° 03' 49.10" 1.000E-01 0.600 F -0.065 1.648 20.8 V 0.70 -0.34 b 691 3.12 Yes Yes
2000PH8 O C H 2000-08-05.48079 1.000E-05 21:09:25.530 1.500E-01 0.600 F -0.087 -0.804 -07° 03' 43.00" 1.000E-01 0.600 F -0.065 -0.315 21.4 V 0.70 0.26 b 691 1.67 Yes Yes
2000PQ27 O C 2000-08-09.36007 1.000E-05 22:21:27.610 1.500E-01 0.600 F 0.606 -0.095 -10° 10' 31.40" 1.000E-01 0.600 F -0.460 -0.556 19.6 V 0.70 0.17 b 691 0.95 Yes Yes
2000PQ27 O C 2000-08-09.38936 1.000E-05 22:21:27.120 1.500E-01 0.600 F 0.606 0.092 -10° 09' 58.30" 1.000E-01 0.600 F -0.460 0.038 20.3 V 0.70 0.87 b 691 0.17 Yes Yes
2000PQ27 O C 2000-08-09.42010 1.000E-05 22:21:26.580 1.500E-01 0.600 F 0.606 -0.200 -10° 09' 24.00" 1.000E-01 0.600 F -0.460 0.089 20.4 V 0.70 0.97 b 691 0.37 Yes Yes
2000PH8 O C H 2000-08-09.44832 1.000E-05 21:15:29.880 1.500E-01 0.600 F 0.458 0.027 -06° 06' 46.70" 1.000E-01 0.600 F -0.149 0.337 21.8 V 0.70 0.44 b 691 0.68 Yes Yes
2000PH8 O C H 2000-08-09.45446 1.000E-05 21:15:30.330 1.500E-01 0.600 F 0.458 0.143 -06° 06' 42.50" 1.000E-01 0.600 F -0.149 -0.165 21.8 V 0.70 0.44 b 691 0.43 Yes Yes
2000PH8 O C H 2000-08-09.46031 1.000E-05 21:15:30.740 1.500E-01 0.600 F 0.458 -0.070 -06° 06' 38.00" 1.000E-01 0.600 F -0.149 -0.147 21.4 V 0.70 0.04 b 691 0.33 Yes Yes
2000PQ27 O C 2000-08-20.27165 1.000E-05 22:18:12.330 1.500E-01 0.600 F 0.705 0.122 -06° 32' 10.00" 1.000E-01 0.600 F -0.244 -0.098 19.1 V 0.70 0.25 b 691 0.26 Yes Yes
2000PQ27 O C 2000-08-20.27925 1.000E-05 22:18:12.060 1.500E-01 0.600 F 0.705 -0.093 -06° 32' 00.20" 1.000E-01 0.600 F -0.244 -0.046 19.0 V 0.70 0.15 b 691 0.17 Yes Yes
2000PQ27 O C 2000-08-20.28674 1.000E-05 22:18:11.810 1.500E-01 0.600 F 0.705 -0.050 -06° 31' 50.70" 1.000E-01 0.600 F -0.244 -0.159 19.0 V 0.70 0.15 b 691 0.28 Yes Yes
2000PJ6 O C 2000-08-26.34947 1.000E-05 23:17:11.590 1.500E-01 0.600 F -0.465 0.613 +00° 27' 51.10" 1.000E-01 0.600 F -0.087 0.104 19.8 V 0.70 1.10 b 691 1.05 Yes Yes
2000PJ6 O C 2000-08-26.37003 1.000E-05 23:17:08.280 1.500E-01 0.600 F -0.400 0.594 +00° 27' 54.50" 1.000E-01 0.600 F 0.087 -0.009 20.8 V 0.70 2.10 b 691 1.00 Yes No
2000PJ6 O C 2000-08-26.39058 1.000E-05 23:17:04.970 1.500E-01 0.600 F -0.400 0.592 +00° 27' 57.70" 1.000E-01 0.600 F 0.087 -0.138 19.8 V 0.70 1.10 b 691 1.03 Yes Yes
2000PG3 O C 2000-08-31.20001 1.000E-05 21:20:56.440 1.500E-01 0.600 F 0.140 0.726 -14° 35' 56.70" 1.000E-01 0.600 F 0.312 -2.042 17.9 V 0.70 -0.37 b 691 3.60 No Yes
2000PG3 O C 2000-08-31.22137 1.000E-05 21:20:52.960 1.500E-01 0.600 F 0.140 -0.006 -14° 35' 58.90" 1.000E-01 0.600 F 0.312 -0.153 18.4 V 0.70 0.13 b 691 0.26 Yes Yes
2000PG3 O C 2000-08-31.24267 1.000E-05 21:20:49.530 1.500E-01 0.600 F 0.140 -0.118 -14° 36' 02.90" 1.000E-01 0.600 F 0.312 -0.112 18.5 V 0.70 0.23 b 691 0.27 Yes Yes
2008AX28 O C 2000-09-03.20397 1.000E-05 21:25:27.620 1.500E-01 0.600 F -0.257 0.014 -14° 04' 00.90" 1.000E-01 0.600 F 0.137 0.230 20.6 V 0.70 0.37 b 691 0.40 Yes Yes
2008AX28 O C 2000-09-03.22726 1.000E-05 21:25:26.140 1.500E-01 0.600 F -0.257 0.214 -14° 04' 02.60" 1.000E-01 0.600 F 0.137 0.043 21.0 V 0.70 0.77 b 691 0.42 Yes Yes
2008AX28 O C 2000-09-03.24939 1.000E-05 21:25:24.740 1.500E-01 0.600 F -0.257 0.525 -14° 04' 04.10" 1.000E-01 0.600 F 0.137 -0.086 20.5 V 0.70 0.27 b 691 0.99 Yes Yes
2000RF52 O C t 2000-09-08.37252 1.000E-05 23:44:58.710 1.500E-01 0.600 F 0.005 3.323 +01° 20' 57.20" 1.000E-01 0.600 F 0.106 2.315 b 691 6.30 No No
2000RF52 O C t 2000-09-08.38047 1.000E-05 23:45:03.470 1.500E-01 0.600 F 0.005 4.324 +01° 22' 29.20" 1.000E-01 0.600 F 0.106 2.717 b 691 7.94 No No
2000RF52 O C t 2000-09-08.38656 1.000E-05 23:45:07.100 1.500E-01 0.600 F 0.005 4.784 +01° 23' 39.40" 1.000E-01 0.600 F 0.106 2.759 b 691 8.58 No No
Seleucus O C 2000-09-08.47424 1.000E-05 00:48:17.060 1.500E-01 0.600 F 0.364 -0.490 +10° 33' 38.10" 1.000E-01 0.600 F 0.492 -0.554 19.4 V 0.70 -0.07 b 691 1.23 Yes Yes
Seleucus O C 2000-09-08.48691 1.000E-05 00:48:16.360 1.500E-01 0.600 F 0.364 -0.548 +10° 33' 33.50" 1.000E-01 0.600 F 0.492 -0.621 19.6 V 0.70 0.13 b 691 1.38 Yes Yes
Seleucus O C 2000-09-08.50002 1.000E-05 00:48:15.640 1.500E-01 0.600 F 0.364 -0.558 +10° 33' 28.90" 1.000E-01 0.600 F 0.492 -0.525 19.8 V 0.70 0.33 b 691 1.28 Yes Yes
2000RD53 O C t 2000-09-19.31226 1.000E-05 02:13:36.270 1.500E-01 0.600 F -0.127 1.694 +04° 12' 12.70" 1.000E-01 0.600 F 0.406 1.758 b 691 4.01 No No
2000RD53 O C t 2000-09-19.31778 1.000E-05 02:13:45.750 1.500E-01 0.600 F -0.127 2.262 +04° 10' 59.10" 1.000E-01 0.600 F 0.406 1.810 b 691 4.77 No No
2000RD53 O C t 2000-09-20.31212 1.000E-05 02:42:09.540 1.500E-01 0.600 F -0.110 1.376 +00° 36' 52.40" 1.000E-01 0.600 F 0.006 1.947 b 691 3.92 No No
2000RD53 O C t 2000-09-20.31696 1.000E-05 02:42:17.010 1.500E-01 0.600 F -0.110 1.262 +00° 35' 52.60" 1.000E-01 0.600 F 0.006 1.804 b 691 3.62 No No
2000RD53 O C t 2000-09-20.45407 1.000E-05 02:45:44.810 1.500E-01 0.600 F -0.176 1.080 +00° 07' 54.90" 1.000E-01 0.600 F 0.441 1.860 b 691 3.54 No No
2000RD53 O C t 2000-09-20.45803 1.000E-05 02:45:50.760 1.500E-01 0.600 F -0.176 1.291 +00° 07' 05.70" 1.000E-01 0.600 F 0.441 0.765 b 691 2.53 Yes No
Seleucus O C I 2000-09-22.29838 1.000E-05 00:34:35.150 1.500E-01 0.600 F -0.266 0.388 +08° 57' 32.00" 1.000E-01 0.600 F 0.017 -0.161 20.9 V 0.70 1.70 b 691 0.70 Yes Yes
2000NF5 O C 2000-09-22.30732 1.000E-05 00:47:29.280 1.500E-01 0.600 F 0.628 -0.019 +08° 49' 57.40" 1.000E-01 0.600 F -0.253 -0.288 16.9 V 0.70 0.21 b 691 0.48 Yes Yes
Seleucus O C 2000-09-22.32894 1.000E-05 00:34:33.160 1.500E-01 0.600 F -0.266 0.523 +08° 57' 17.90" 1.000E-01 0.600 F 0.017 0.085 19.7 V 0.70 0.50 b 691 0.88 Yes Yes
2000NF5 O C 2000-09-22.33787 1.000E-05 00:47:27.000 1.500E-01 0.600 F 0.628 -0.182 +08° 49' 43.60" 1.000E-01 0.600 F -0.253 -0.312 16.9 V 0.70 0.21 b 691 0.60 Yes Yes
Seleucus O C 2000-09-22.35098 1.000E-05 00:34:31.710 1.500E-01 0.600 F -0.266 0.406 +08° 57' 07.10" 1.000E-01 0.600 F 0.017 -0.350 19.9 V 0.70 0.71 b 691 0.89 Yes Yes
2000NF5 O C 2000-09-22.35991 1.000E-05 00:47:25.360 1.500E-01 0.600 F 0.628 -0.219 +08° 49' 33.70" 1.000E-01 0.600 F -0.253 -0.226 16.9 V 0.70 0.21 b 691 0.53 Yes Yes
1998SG36 O C 2000-09-25.38734 1.000E-05 00:12:35.910 1.500E-01 0.600 F 0.271 0.144 +04° 24' 30.30" 1.000E-01 0.600 F 0.007 -0.100 17.9 V 0.70 0.21 b 691 0.29 Yes Yes
1998SG36 O C 2000-09-25.40911 1.000E-05 00:12:34.230 1.500E-01 0.600 F 0.271 0.025 +04° 23' 59.20" 1.000E-01 0.600 F 0.007 -0.129 17.9 V 0.70 0.21 b 691 0.22 Yes Yes
1998SG36 O C 2000-09-25.43141 1.000E-05 00:12:32.530 1.500E-01 0.600 F 0.271 0.129 +04° 23' 27.30" 1.000E-01 0.600 F 0.007 -0.195 18.0 V 0.70 0.31 b 691 0.39 Yes Yes
2000SM10 O C t 2000-09-26.13471 1.000E-05 22:27:04.310 1.500E-01 0.600 F 0.617 0.633 +11° 10' 55.80" 1.000E-01 0.600 F -0.062 0.927 b 691 1.90 Yes No
2000SM10 O C t 2000-09-27.11251 1.000E-05 21:59:50.230 1.500E-01 0.600 F 0.027 -0.093 +15° 12' 12.30" 1.000E-01 0.600 F 0.183 0.028 18.2 V 0.70 1.18 b 691 0.17 Yes Yes
2000SH8 O C t 2000-09-27.33078 1.000E-05 23:29:43.840 1.500E-01 0.600 F -0.151 -0.339 -01° 45' 25.00" 1.000E-01 0.600 F 0.098 0.994 16.8 V 0.70 0.14 b 691 1.78 Yes Yes
2000SH8 O C t 2000-09-27.35136 1.000E-05 23:29:27.520 1.500E-01 0.600 F -0.151 -0.190 -01° 42' 59.30" 1.000E-01 0.600 F 0.098 0.903 16.8 V 0.70 0.14 b 691 1.57 Yes Yes
2000SH8 O C t 2000-09-27.37215 1.000E-05 23:29:11.050 1.500E-01 0.600 F -0.400 0.372 -01° 40' 30.90" 1.000E-01 0.600 F -0.224 2.209 16.8 V 0.70 0.14 b 691 3.67 No Yes
2000SH8 O C t 2000-09-27.39089 1.000E-05 23:28:56.170 1.500E-01 0.600 F -0.400 0.020 -01° 38' 19.20" 1.000E-01 0.600 F -0.224 0.912 16.8 V 0.70 0.14 b 691 1.55 Yes Yes
2000SZ162 O C t 2000-09-29.31895 1.000E-05 00:34:42.930 1.500E-01 0.735 F -0.247 0.784 -00° 42' 21.40" 1.000E-01 0.735 F 0.292 0.301 19.7 V 0.70 -0.64 b 691 1.26 Yes Yes
2000SZ162 O C t 2000-09-29.33956 1.000E-05 00:34:29.890 1.500E-01 0.735 F -0.247 0.191 -00° 43' 15.40" 1.000E-01 0.735 F 0.292 -0.079 19.7 V 0.70 -0.63 b 691 0.30 Yes Yes
2000SZ162 O C t 2000-09-29.36012 1.000E-05 00:34:16.960 1.500E-01 0.735 F -0.247 0.502 -00° 44' 08.90" 1.000E-01 0.735 F 0.292 -0.032 19.7 V 0.70 -0.63 b 691 0.73 Yes Yes
2000SZ162 O C t 2000-09-29.44914 1.000E-05 00:33:21.830 1.500E-01 0.735 F -0.247 0.274 -00° 48' 01.50" 1.000E-01 0.735 F 0.292 -0.158 19.6 V 0.70 -0.71 b 691 0.46 Yes Yes
2000SZ162 O C t 2000-09-29.45904 1.000E-05 00:33:15.830 1.500E-01 0.735 F -0.247 -0.159 -00° 48' 27.30" 1.000E-01 0.735 F 0.292 -0.039 19.7 V 0.70 -0.61 b 691 0.24 Yes Yes
2000SZ162 O C t 2000-09-29.46539 1.000E-05 00:33:12.070 1.500E-01 0.735 F -0.247 0.566 -00° 48' 44.00" 1.000E-01 0.735 F 0.292 -0.106 19.8 V 0.70 -0.51 b 691 0.84 Yes Yes
2000SZ162 O C t 2000-09-30.29750 1.000E-05 00:25:31.390 1.500E-01 0.600 F -0.054 -0.261 -01° 26' 47.90" 1.000E-01 0.600 F 0.426 0.395 20.7 V 0.70 0.47 b 691 0.84 Yes Yes
2000SZ162 O C t 2000-09-30.38751 1.000E-05 00:24:29.240 1.500E-01 0.600 F -0.054 -0.594 -01° 31' 05.40" 1.000E-01 0.600 F 0.426 -0.231 20.2 V 0.70 -0.03 b 691 1.11 Yes Yes
2000SZ162 O C t 2000-09-30.39520 1.000E-05 00:24:23.990 1.500E-01 0.600 F -0.054 -0.602 -01° 31' 26.60" 1.000E-01 0.600 F 0.426 0.523 21.6 V 0.70 1.37 b 691 1.39 Yes Yes
2000SZ162 O C t 2000-09-30.40149 1.000E-05 00:24:19.880 1.500E-01 0.600 F -0.054 1.968 -01° 31' 44.00" 1.000E-01 0.600 F 0.426 1.082 21.8 V 0.70 1.57 b 691 3.57 No Yes
2000SZ162 O C t 2000-10-01.25126 1.000E-05 00:15:41.130 1.500E-01 0.735 F 0.048 -2.614 -02° 14' 11.30" 1.000E-01 0.735 F -0.368 -0.629 20.4 V 0.70 0.16 b 691 3.39 No Yes
2000SZ162 O C t 2000-10-01.25740 1.000E-05 00:15:36.630 1.500E-01 0.735 F 0.048 -0.728 -02° 14' 29.30" 1.000E-01 0.735 F -0.368 0.555 20.9 V 0.70 0.66 b 691 1.33 Yes Yes
2000SZ162 O C t 2000-10-01.26360 1.000E-05 00:15:31.940 1.500E-01 0.735 F 0.048 -0.887 -02° 14' 48.10" 1.000E-01 0.735 F -0.368 1.124 19.7 V 0.70 -0.54 b 691 2.03 Yes Yes
2000SZ162 O C t 2000-10-01.44066 1.000E-05 00:13:19.000 1.500E-01 0.735 F 0.048 0.088 -02° 24' 00.40" 1.000E-01 0.735 F -0.368 0.196 20.2 V 0.70 -0.05 b 691 0.30 Yes Yes
2000SZ162 O C t 2000-10-01.44683 1.000E-05 00:13:14.490 1.500E-01 0.735 F 0.048 -0.401 -02° 24' 19.20" 1.000E-01 0.735 F -0.368 0.566 20.6 V 0.70 0.35 b 691 0.99 Yes Yes
2000SZ162 O C t 2000-10-01.45312 1.000E-05 00:13:09.970 1.500E-01 0.735 F 0.048 -0.017 -02° 24' 38.40" 1.000E-01 0.735 F -0.368 0.909 20.9 V 0.70 0.65 b 691 1.26 Yes Yes
1996TY11 O C 2000-10-01.46427 1.000E-05 02:04:09.650 1.500E-01 0.600 F 0.081 -0.135 +06° 17' 58.60" 1.000E-01 0.600 F -0.300 -0.147 21.6 V 0.70 0.43 b 691 0.34 Yes Yes
1996TY11 O C 2000-10-01.48573 1.000E-05 02:04:07.150 1.500E-01 0.600 F 0.081 0.547 +06° 17' 52.80" 1.000E-01 0.600 F -0.300 -0.183 21.5 V 0.70 0.33 b 691 0.96 Yes Yes
1996TY11 O C 2000-10-01.50741 1.000E-05 02:04:04.550 1.500E-01 0.600 F 0.081 0.043 +06° 17' 47.30" 1.000E-01 0.600 F -0.300 0.156 22.1 V 0.70 0.93 b 691 0.27 Yes Yes
2000SZ162 O C t 2000-10-02.30187 1.000E-05 00:03:32.050 1.500E-01 0.600 F 0.044 1.225 -03° 11' 10.90" 1.000E-01 0.600 F -0.532 0.440 b 691 2.29 Yes No
2000SZ162 O C t 2000-10-02.30921 1.000E-05 00:03:25.880 1.500E-01 0.600 F 0.044 0.349 -03° 11' 36.40" 1.000E-01 0.600 F -0.532 -0.179 b 691 0.68 Yes No
2000SZ162 O C t 2000-10-02.31507 1.000E-05 00:03:21.130 1.500E-01 0.600 F 0.044 2.261 -03° 11' 56.40" 1.000E-01 0.600 F -0.532 -0.327 b 691 3.65 No No
Hypnos O C 2000-10-02.47817 1.000E-05 02:43:17.680 1.500E-01 0.600 F 0.063 -0.441 +11° 06' 48.40" 1.000E-01 0.600 F -0.087 0.690 19.3 V 0.70 0.88 b 691 1.38 Yes Yes
Hypnos O C 2000-10-02.49289 1.000E-05 02:43:15.610 1.500E-01 0.600 F 0.063 -0.465 +11° 06' 43.00" 1.000E-01 0.600 F -0.087 0.552 19.4 V 0.70 0.98 b 691 1.22 Yes Yes
Hypnos O C 2000-10-02.50797 1.000E-05 02:43:13.500 1.500E-01 0.600 F 0.063 -0.422 +11° 06' 37.70" 1.000E-01 0.600 F -0.087 0.667 19.2 V 0.70 0.78 b 691 1.33 Yes Yes
2000SZ162 O C t 2000-10-04.27781 1.000E-05 23:37:16.190 1.500E-01 0.600 F -0.331 0.233 -05° 12' 15.50" 1.000E-01 0.600 F 0.261 -0.328 b 691 0.70 Yes No
2000SZ162 O C t 2000-10-04.28218 1.000E-05 23:37:11.850 1.500E-01 0.600 F -0.331 0.215 -05° 12' 33.80" 1.000E-01 0.600 F 0.261 -1.500 b 691 2.63 Yes No
2000SZ162 O C t 2000-10-04.28900 1.000E-05 23:37:05.090 1.500E-01 0.600 F -0.331 0.366 -05° 13' 00.00" 1.000E-01 0.600 F 0.261 -1.000 b 691 1.85 Yes No
2000TV28 O C 2000-10-04.30797 1.000E-05 00:39:27.620 1.500E-01 0.600 F -0.459 -0.355 -03° 55' 22.60" 1.000E-01 0.600 F -0.361 -0.210 21.1 V 0.70 0.97 b 691 0.71 Yes Yes
2000TV28 O C 2000-10-04.36513 1.000E-05 00:39:28.910 1.500E-01 0.600 F -0.459 -0.039 -03° 55' 11.40" 1.000E-01 0.600 F -0.361 -0.075 20.9 V 0.70 0.77 b 691 0.15 Yes Yes
2000TV28 O C 2000-10-04.38596 1.000E-05 00:39:29.370 1.500E-01 0.600 F -0.459 -0.334 -03° 55' 07.40" 1.000E-01 0.600 F -0.361 -0.174 20.6 V 0.70 0.47 b 691 0.65 Yes Yes
2000SZ162 O C t 2000-10-05.21935 1.000E-05 23:23:04.100 1.500E-01 0.600 F -0.373 -0.916 -06° 15' 54.90" 1.000E-01 0.600 F 0.464 -0.702 b 691 2.10 Yes No
2000SZ162 O C t 2000-10-05.22323 1.000E-05 23:23:00.070 1.500E-01 0.600 F -0.373 1.095 -06° 16' 09.80" 1.000E-01 0.600 F 0.464 0.678 b 691 2.34 Yes No
2000TV28 O C 2000-10-05.25848 1.000E-05 00:39:58.970 1.500E-01 0.600 F -0.459 0.532 -03° 52' 12.30" 1.000E-01 0.600 F -0.361 -0.095 20.5 V 0.70 0.37 b 691 0.93 Yes Yes
2000TV28 O C 2000-10-05.26246 1.000E-05 00:39:59.030 1.500E-01 0.600 F -0.459 0.076 -03° 52' 11.80" 1.000E-01 0.600 F -0.361 -0.419 20.8 V 0.70 0.67 b 691 0.73 Yes Yes
2000TV28 O C 2000-10-05.26626 1.000E-05 00:39:59.140 1.500E-01 0.600 F -0.459 0.433 -03° 52' 11.00" 1.000E-01 0.600 F -0.361 -0.407 20.5 V 0.70 0.37 b 691 1.02 Yes Yes
1993HO1 O C 2000-10-05.28419 1.000E-05 23:49:11.780 1.500E-01 0.600 F -0.717 -2.573 -05° 06' 15.30" 1.000E-01 0.600 F 0.033 -2.740 19.4 V 0.70 0.28 b 691 6.26 No Yes
1993HO1 O C 2000-10-05.30594 1.000E-05 23:49:10.190 1.500E-01 0.600 F -0.717 0.284 -05° 06' 19.10" 1.000E-01 0.600 F 0.033 0.037 19.5 V 0.70 0.38 b 691 0.48 Yes Yes
1993HO1 O C 2000-10-05.32692 1.000E-05 23:49:08.450 1.500E-01 0.600 F -0.717 -0.078 -05° 06' 25.40" 1.000E-01 0.600 F 0.033 0.068 19.5 V 0.70 0.37 b 691 0.17 Yes Yes
2000TV28 O C H 2000-10-06.35515 1.000E-05 00:40:34.270 1.500E-01 0.600 F -0.453 -0.184 -03° 48' 10.00" 1.000E-01 0.600 F -0.275 -0.033 20.7 V 0.70 0.58 b 691 0.32 Yes Yes
2000TV28 O C H 2000-10-06.35893 1.000E-05 00:40:34.370 1.500E-01 0.600 F -0.453 -0.042 -03° 48' 09.10" 1.000E-01 0.600 F -0.275 -0.026 20.3 V 0.70 0.18 b 691 0.09 Yes Yes
2000TV28 O C H 2000-10-06.36274 1.000E-05 00:40:34.510 1.500E-01 0.600 F -0.453 0.682 -03° 48' 08.10" 1.000E-01 0.600 F -0.275 0.074 19.9 V 0.70 -0.22 b 691 1.18 Yes Yes
2000SZ162 O C t 2000-10-07.18206 1.000E-05 22:49:28.660 1.500E-01 0.600 F -0.071 -1.956 -08° 37' 46.00" 1.000E-01 0.600 F -0.275 -1.267 20.5 V 0.70 -0.03 b 691 3.24 No Yes
2000SZ162 O C t 2000-10-07.18591 1.000E-05 22:49:24.000 1.500E-01 0.600 F -0.071 -0.333 -08° 38' 01.90" 1.000E-01 0.600 F -0.275 0.230 20.7 V 0.70 0.17 b 691 0.85 Yes Yes
2000SZ162 O C t 2000-10-07.19029 1.000E-05 22:49:18.580 1.500E-01 0.600 F -0.071 -0.177 -08° 38' 20.80" 1.000E-01 0.600 F -0.275 1.089 20.7 V 0.70 0.17 b 691 2.16 Yes Yes
2000TV28 O C H 2000-10-07.27047 1.000E-05 00:41:06.140 1.500E-01 0.600 F -0.453 -0.980 -03° 44' 28.00" 1.000E-01 0.600 F -0.275 0.645 20.0 V 0.70 -0.12 b 691 2.01 Yes Yes
2000TV28 O C H 2000-10-07.27476 1.000E-05 00:41:06.360 1.500E-01 0.600 F -0.453 0.772 -03° 44' 26.90" 1.000E-01 0.600 F -0.275 0.671 20.2 V 0.70 0.08 b 691 1.76 Yes Yes
2000TV28 O C H 2000-10-07.27861 1.000E-05 00:41:06.330 1.500E-01 0.600 F -0.453 -1.058 -03° 44' 25.40" 1.000E-01 0.600 F -0.275 1.205 20.0 V 0.70 -0.12 b 691 2.74 Yes Yes
2000TQ64 O C 2000-10-07.43821 1.000E-05 01:53:44.650 1.500E-01 0.600 F 0.077 0.115 +12° 34' 30.10" 1.000E-01 0.600 F -0.160 -0.145 21.6 V 0.70 0.23 b 691 0.31 Yes Yes
2000TQ64 O C 2000-10-07.45959 1.000E-05 01:53:43.020 1.500E-01 0.600 F 0.077 -0.087 +12° 34' 25.60" 1.000E-01 0.600 F -0.160 -0.253 21.7 V 0.70 0.33 b 691 0.45 Yes Yes
2000TQ64 O C 2000-10-07.48084 1.000E-05 01:53:41.410 1.500E-01 0.600 F 0.077 -0.197 +12° 34' 21.60" 1.000E-01 0.600 F -0.160 0.130 21.5 V 0.70 0.13 b 691 0.39 Yes Yes
2000TQ64 O C 2000-10-18.34526 1.000E-05 01:39:58.420 1.500E-01 0.600 F 0.044 0.606 +11° 53' 38.20" 1.000E-01 0.600 F 0.077 -0.207 21.7 V 0.70 0.61 b 691 1.07 Yes Yes
2000TQ64 O C 2000-10-18.35090 1.000E-05 01:39:57.970 1.500E-01 0.600 F 0.044 0.462 +11° 53' 36.60" 1.000E-01 0.600 F 0.077 -0.433 21.2 V 0.70 0.11 b 691 1.06 Yes Yes
2000TQ64 O C 2000-10-18.35641 1.000E-05 01:39:57.520 1.500E-01 0.600 F 0.044 0.168 +11° 53' 35.10" 1.000E-01 0.600 F 0.077 -0.590 21.6 V 0.70 0.51 b 691 1.03 Yes Yes
2000TQ64 O C H 2000-10-21.27825 1.000E-05 01:36:17.090 1.500E-01 0.600 F 0.250 0.480 +11° 41' 44.30" 1.000E-01 0.600 F 0.195 0.763 21.3 V 0.70 0.21 b 691 1.51 Yes Yes
2000TQ64 O C H 2000-10-21.28270 1.000E-05 01:36:16.670 1.500E-01 0.600 F 0.250 -0.656 +11° 41' 42.40" 1.000E-01 0.600 F 0.195 -0.048 20.8 V 0.70 -0.29 b 691 1.10 Yes Yes
2000TV28 O C 2000-10-25.22212 1.000E-05 00:54:51.570 1.500E-01 0.600 F -0.224 0.223 -01° 23' 13.30" 1.000E-01 0.600 F 0.194 -0.265 20.4 V 0.70 0.13 b 691 0.59 Yes Yes
2000TV28 O C 2000-10-25.24478 1.000E-05 00:54:52.700 1.500E-01 0.600 F -0.224 0.217 -01° 22' 57.70" 1.000E-01 0.600 F 0.194 -0.638 20.4 V 0.70 0.13 b 691 1.14 Yes Yes
2000TV28 O C 2000-10-25.26640 1.000E-05 00:54:53.770 1.500E-01 0.600 F -0.224 0.104 -01° 22' 42.00" 1.000E-01 0.600 F 0.194 -0.202 20.3 V 0.70 0.03 b 691 0.39 Yes Yes
2000UR13 O C 2000-10-27.25320 1.000E-05 01:35:30.850 1.500E-01 0.600 F 0.419 0.760 +20° 10' 42.40" 1.000E-01 0.600 F -0.663 0.002 20.0 V 0.70 0.42 b 691 1.28 Yes Yes
2000UR13 O C 2000-10-27.27503 1.000E-05 01:35:29.290 1.500E-01 0.600 F 0.419 0.784 +20° 10' 33.60" 1.000E-01 0.600 F -0.663 0.125 20.0 V 0.70 0.42 b 691 1.34 Yes Yes
2000UR13 O C 2000-10-27.29553 1.000E-05 01:35:27.820 1.500E-01 0.600 F 0.419 0.732 +20° 10' 25.20" 1.000E-01 0.600 F -0.663 0.134 20.0 V 0.70 0.42 b 691 1.25 Yes Yes
2000UR13 O C H 2000-10-29.25782 1.000E-05 01:33:13.060 1.500E-01 0.600 F 0.291 0.979 +19° 56' 54.20" 1.000E-01 0.600 F -0.054 -0.325 19.9 V 0.70 0.28 b 691 1.73 Yes Yes
2000UR13 O C H 2000-10-29.27192 1.000E-05 01:33:12.110 1.500E-01 0.600 F 0.291 1.471 +19° 56' 48.10" 1.000E-01 0.600 F -0.054 -0.553 20.3 V 0.70 0.68 b 691 2.63 Yes Yes
2000TV28 O C H 2000-10-29.30854 1.000E-05 00:59:16.610 1.500E-01 0.600 F -0.201 2.601 -00° 31' 36.00" 1.000E-01 0.600 F 0.333 0.563 20.6 V 0.70 0.26 b 691 4.31 No Yes
2000TV28 O C H 2000-10-29.32060 1.000E-05 00:59:17.300 1.500E-01 0.600 F -0.201 2.209 -00° 31' 27.90" 1.000E-01 0.600 F 0.333 -1.106 20.8 V 0.70 0.46 b 691 4.03 No Yes
2000UR13 O C 2000-10-30.21298 1.000E-05 01:32:08.690 1.500E-01 0.600 F 0.291 0.144 +19° 50' 14.70" 1.000E-01 0.600 F -0.054 -0.374 20.6 V 0.70 0.96 b 691 0.67 Yes Yes
2000UR13 O C 2000-10-30.21765 1.000E-05 01:32:08.380 1.500E-01 0.600 F 0.291 0.306 +19° 50' 12.70" 1.000E-01 0.600 F -0.054 -0.430 20.6 V 0.70 0.96 b 691 0.88 Yes Yes
2000UR13 O C 2000-10-30.22227 1.000E-05 01:32:08.040 1.500E-01 0.600 F 0.291 -0.003 +19° 50' 10.70" 1.000E-01 0.600 F -0.054 -0.504 20.6 V 0.70 0.96 b 691 0.84 Yes Yes
2000TQ64 O C H 2000-10-30.23226 1.000E-05 01:25:36.110 1.500E-01 0.600 F -0.047 0.148 +11° 05' 34.00" 1.000E-01 0.600 F 0.050 1.959 21.0 V 0.70 -0.47 b 691 3.26 No Yes
2000TQ64 O C H 2000-10-30.25360 1.000E-05 01:25:34.840 1.500E-01 0.600 F -0.047 3.221 +11° 05' 29.40" 1.000E-01 0.600 F 0.050 2.341 21.3 V 0.70 -0.17 b 691 6.58 No Yes
2000TQ64 O C H 2000-10-30.27501 1.000E-05 01:25:33.210 1.500E-01 0.600 F -0.047 1.062 +11° 05' 21.40" 1.000E-01 0.600 F 0.050 -0.645 21.8 V 0.70 0.33 b 691 2.08 Yes Yes
Seleucus O C 2000-11-01.14546 1.000E-05 23:58:27.330 1.500E-01 0.600 F -0.022 0.612 +03° 46' 47.10" 1.000E-01 0.600 F -0.155 -0.048 20.3 V 0.70 0.47 b 691 1.02 Yes Yes
2000VH61 O C 2000-11-01.14841 1.000E-05 00:02:42.290 1.500E-01 0.600 F 0.151 0.662 +03° 41' 27.70" 1.000E-01 0.600 F -0.011 -1.117 21.4 V 0.70 0.94 b 691 2.18 Yes Yes
Seleucus O C 2000-11-01.16655 1.000E-05 23:58:26.610 1.500E-01 0.600 F -0.022 0.597 +03° 46' 39.50" 1.000E-01 0.600 F -0.155 -0.111 20.3 V 0.70 0.46 b 691 1.01 Yes Yes
2000VH61 O C 2000-11-01.16949 1.000E-05 00:02:41.530 1.500E-01 0.600 F 0.151 0.107 +03° 41' 11.40" 1.000E-01 0.600 F -0.011 -0.391 21.7 V 0.70 1.24 b 691 0.68 Yes Yes
Seleucus O C 2000-11-01.18845 1.000E-05 23:58:25.860 1.500E-01 0.600 F -0.022 0.549 +03° 46' 31.90" 1.000E-01 0.600 F -0.155 0.117 20.0 V 0.70 0.16 b 691 0.94 Yes Yes
2000VH61 O C 2000-11-01.19139 1.000E-05 00:02:40.760 1.500E-01 0.600 F 0.151 -0.164 +03° 40' 54.10" 1.000E-01 0.600 F -0.011 0.003 21.7 V 0.70 1.24 b 691 0.28 Yes Yes
2000UR13 O C 2000-11-01.28356 1.000E-05 01:29:52.070 1.500E-01 0.600 F 0.170 -0.009 +19° 35' 41.50" 1.000E-01 0.600 F -0.115 -0.505 20.4 V 0.70 0.70 b 691 0.84 Yes Yes
2000UR13 O C 2000-11-01.28756 1.000E-05 01:29:51.810 1.500E-01 0.600 F 0.170 0.089 +19° 35' 39.90" 1.000E-01 0.600 F -0.115 -0.405 20.5 V 0.70 0.80 b 691 0.69 Yes Yes
2000UR13 O C 2000-11-01.29157 1.000E-05 01:29:51.660 1.500E-01 0.600 F 0.170 1.751 +19° 35' 36.90" 1.000E-01 0.600 F -0.115 -1.699 20.1 V 0.70 0.40 b 691 4.06 No Yes
2000VH61 O C 2000-11-02.22306 1.000E-05 00:02:10.100 1.500E-01 0.600 F 0.151 -0.138 +03° 27' 06.20" 1.000E-01 0.600 F -0.011 -0.491 21.0 V 0.70 0.53 b 691 0.86 Yes Yes
2000VH61 O C 2000-11-02.22681 1.000E-05 00:02:09.990 1.500E-01 0.600 F 0.151 0.007 +03° 27' 03.30" 1.000E-01 0.600 F -0.011 -0.405 21.0 V 0.70 0.53 b 691 0.68 Yes Yes
2000VH61 O C 2000-11-02.23065 1.000E-05 00:02:09.890 1.500E-01 0.600 F 0.151 0.344 +03° 27' 00.60" 1.000E-01 0.600 F -0.011 -0.047 20.9 V 0.70 0.43 b 691 0.60 Yes Yes
2000TQ64 O C 2000-11-02.24973 1.000E-05 01:22:18.670 1.500E-01 0.600 F 0.044 0.265 +10° 54' 00.70" 1.000E-01 0.600 F -0.144 -0.254 22.3 V 0.70 0.72 b 691 0.61 Yes Yes
2000TQ64 O C 2000-11-02.25354 1.000E-05 01:22:18.400 1.500E-01 0.600 F 0.044 -0.036 +10° 53' 59.90" 1.000E-01 0.600 F -0.144 -0.204 21.6 V 0.70 0.02 b 691 0.35 Yes Yes
2000TQ64 O C 2000-11-02.25768 1.000E-05 01:22:18.150 1.500E-01 0.600 F 0.044 0.275 +10° 53' 59.10" 1.000E-01 0.600 F -0.144 -0.079 21.2 V 0.70 -0.38 b 691 0.48 Yes Yes
2000UR13 O C 2000-11-02.26379 1.000E-05 01:28:49.140 1.500E-01 0.600 F 0.225 0.083 +19° 28' 46.00" 1.000E-01 0.600 F -0.149 -0.268 20.2 V 0.70 0.48 b 691 0.47 Yes Yes
2000UR13 O C 2000-11-02.26778 1.000E-05 01:28:48.890 1.500E-01 0.600 F 0.225 0.251 +19° 28' 44.00" 1.000E-01 0.600 F -0.149 -0.572 20.3 V 0.70 0.58 b 691 1.04 Yes Yes
2000UR13 O C 2000-11-02.27180 1.000E-05 01:28:48.610 1.500E-01 0.600 F 0.225 0.023 +19° 28' 42.50" 1.000E-01 0.600 F -0.149 -0.361 20.1 V 0.70 0.38 b 691 0.60 Yes Yes
2000SB8 O C 2000-11-02.28474 1.000E-05 02:08:45.480 1.500E-01 0.600 F 0.285 -0.474 +09° 51' 35.20" 1.000E-01 0.600 F -0.158 0.263 17.7 V 0.70 0.49 b 691 0.92 Yes Yes
2000SB8 O C 2000-11-02.30592 1.000E-05 02:08:44.770 1.500E-01 0.600 F 0.285 -0.346 +09° 52' 16.10" 1.000E-01 0.600 F -0.158 0.244 17.7 V 0.70 0.49 b 691 0.72 Yes Yes
2000SB8 O C 2000-11-02.32767 1.000E-05 02:08:44.030 1.500E-01 0.600 F 0.285 -0.452 +09° 52' 57.90" 1.000E-01 0.600 F -0.158 0.126 17.8 V 0.70 0.59 b 691 0.79 Yes Yes
2000VH61 O C 2000-11-03.34432 1.000E-05 00:01:39.320 1.500E-01 0.600 F 0.160 -0.266 +03° 12' 21.90" 1.000E-01 0.600 F -0.076 -0.466 21.1 V 0.70 0.62 b 691 0.91 Yes Yes
2000VH61 O C 2000-11-03.34807 1.000E-05 00:01:39.220 1.500E-01 0.600 F 0.160 -0.202 +03° 12' 18.80" 1.000E-01 0.600 F -0.076 -0.628 21.2 V 0.70 0.72 b 691 1.11 Yes Yes
2000VH61 O C 2000-11-03.35185 1.000E-05 00:01:39.110 1.500E-01 0.600 F 0.160 -0.279 +03° 12' 16.20" 1.000E-01 0.600 F -0.076 -0.267 21.0 V 0.70 0.52 b 691 0.66 Yes Yes
2000VH61 O C 2000-11-16.17588 1.000E-05 23:59:35.900 1.500E-01 0.600 F 0.193 -0.237 +00° 47' 22.20" 1.000E-01 0.600 F -0.143 -0.337 21.6 V 0.70 0.96 b 691 0.70 Yes Yes
2000VH61 O C 2000-11-16.18404 1.000E-05 23:59:35.910 1.500E-01 0.600 F 0.193 -0.545 +00° 47' 17.60" 1.000E-01 0.600 F -0.143 -0.353 21.2 V 0.70 0.56 b 691 1.11 Yes Yes
2000VH61 O C 2000-11-16.19197 1.000E-05 23:59:35.960 1.500E-01 0.600 F 0.193 -0.246 +00° 47' 13.30" 1.000E-01 0.600 F -0.143 -0.200 21.0 V 0.70 0.36 b 691 0.54 Yes Yes
1996TY11 O C 2000-11-18.17812 1.000E-05 00:22:45.970 1.500E-01 0.600 F -0.110 0.821 +03° 17' 40.90" 1.000E-01 0.600 F -0.044 0.541 21.8 V 0.70 0.30 b 691 1.65 Yes Yes
1996TY11 O C 2000-11-18.20755 1.000E-05 00:22:43.500 1.500E-01 0.600 F -0.110 -0.594 +03° 17' 41.50" 1.000E-01 0.600 F -0.044 0.377 22.4 V 0.70 0.90 b 691 1.17 Yes Yes
1996TY11 O C 2000-11-18.24415 1.000E-05 00:22:40.590 1.500E-01 0.600 F -0.110 -0.104 +03° 17' 42.30" 1.000E-01 0.600 F -0.044 0.229 22.5 V 0.70 0.99 b 691 0.42 Yes Yes
2000NG11 O C 2000-11-24.38408 1.000E-05 05:40:13.720 1.500E-01 0.600 F 0.204 -0.196 +23° 50' 15.80" 1.000E-01 0.600 F 0.007 -0.025 16.0 V 0.70 -0.28 b 691 0.33 Yes Yes
2000WC67 O C 2000-11-24.38482 1.000E-05 05:41:17.960 1.500E-01 0.600 F 0.206 -0.247 +23° 53' 59.10" 1.000E-01 0.600 F -0.044 -0.286 19.6 V 0.70 0.75 b 691 0.64 Yes Yes
2000NG11 O C 2000-11-24.40724 1.000E-05 05:40:12.220 1.500E-01 0.600 F 0.204 -0.173 +23° 50' 18.00" 1.000E-01 0.600 F 0.007 -0.127 16.1 V 0.70 -0.18 b 691 0.36 Yes Yes
2000WC67 O C 2000-11-24.40800 1.000E-05 05:41:18.010 1.500E-01 0.600 F 0.206 -0.096 +23° 53' 37.20" 1.000E-01 0.600 F -0.044 -0.067 19.4 V 0.70 0.55 b 691 0.20 Yes Yes
2000NG11 O C 2000-11-24.43060 1.000E-05 05:40:10.710 1.500E-01 0.600 F 0.204 -0.200 +23° 50' 20.20" 1.000E-01 0.600 F 0.007 -0.064 16.8 V 0.70 0.52 b 691 0.35 Yes Yes
2000WC67 O C 2000-11-24.43137 1.000E-05 05:41:18.040 1.500E-01 0.600 F 0.206 -0.274 +23° 53' 14.80" 1.000E-01 0.600 F -0.044 -0.035 19.3 V 0.70 0.45 b 691 0.47 Yes Yes
1998OR2 O C 2000-11-26.25629 1.000E-05 03:06:17.800 1.500E-01 0.600 F -0.446 0.863 +21° 34' 02.90" 1.000E-01 0.600 F -0.408 0.407 21.0 V 0.70 0.55 b 691 1.59 Yes Yes
1994LW O C 2000-11-26.25860 1.000E-05 03:09:37.760 1.500E-01 0.600 F 0.157 0.039 +21° 24' 15.80" 1.000E-01 0.600 F -0.464 0.275 20.8 V 0.70 0.19 b 691 0.46 Yes Yes
1998OR2 O C 2000-11-26.27974 1.000E-05 03:06:16.170 1.500E-01 0.600 F -0.446 1.296 +21° 33' 57.50" 1.000E-01 0.600 F -0.408 0.341 20.9 V 0.70 0.45 b 691 2.23 Yes Yes
1994LW O C 2000-11-26.28205 1.000E-05 03:09:36.350 1.500E-01 0.600 F 0.157 -0.148 +21° 24' 00.20" 1.000E-01 0.600 F -0.464 0.078 21.0 V 0.70 0.39 b 691 0.28 Yes Yes
1998OR2 O C 2000-11-26.30272 1.000E-05 03:06:14.500 1.500E-01 0.600 F -0.446 0.692 +21° 33' 52.30" 1.000E-01 0.600 F -0.408 0.398 21.1 V 0.70 0.65 b 691 1.33 Yes Yes
1994LW O C 2000-11-26.30504 1.000E-05 03:09:35.000 1.500E-01 0.600 F 0.157 0.099 +21° 23' 45.20" 1.000E-01 0.600 F -0.464 0.206 20.4 V 0.70 -0.21 b 691 0.38 Yes Yes
2000WN63 O C 2000-11-27.22105 1.000E-05 03:03:20.970 1.500E-01 0.735 F -0.319 0.181 +17° 35' 37.40" 1.000E-01 0.735 F 0.274 0.031 21.7 V 0.70 0.65 b 691 0.25 Yes Yes
2000WN63 O C 2000-11-27.25320 1.000E-05 03:03:16.890 1.500E-01 0.735 F -0.319 0.669 +17° 35' 35.20" 1.000E-01 0.735 F 0.274 -0.079 21.5 V 0.70 0.44 b 691 0.92 Yes Yes
2000WN63 O C 2000-11-27.28484 1.000E-05 03:03:12.850 1.500E-01 0.735 F -0.319 0.782 +17° 35' 33.20" 1.000E-01 0.735 F 0.274 0.068 22.1 V 0.70 1.04 b 691 1.07 Yes Yes
2000WN63 O C I 2000-11-27.33270 1.000E-05 03:03:06.730 1.500E-01 0.735 F -0.319 0.673 +17° 35' 29.30" 1.000E-01 0.735 F 0.274 -0.418 21.4 V 0.70 0.34 b 691 1.08 Yes Yes
2000WN63 O C 2000-11-27.34666 1.000E-05 03:03:04.950 1.500E-01 0.735 F -0.319 0.655 +17° 35' 28.90" 1.000E-01 0.735 F 0.274 0.213 21.3 V 0.70 0.24 b 691 0.94 Yes Yes
2000WN63 O C 2000-11-27.36052 1.000E-05 03:03:03.190 1.500E-01 0.735 F -0.319 0.707 +17° 35' 27.30" 1.000E-01 0.735 F 0.274 -0.349 21.3 V 0.70 0.24 b 691 1.07 Yes Yes
2000NF5 O C 2000-11-28.09749 1.000E-05 00:25:52.090 1.500E-01 0.600 F 0.176 -0.096 +04° 53' 26.30" 1.000E-01 0.600 F 0.284 -0.059 19.3 V 0.70 0.04 b 691 0.19 Yes Yes
2000NF5 O C 2000-11-28.12707 1.000E-05 00:25:53.210 1.500E-01 0.600 F 0.176 -0.198 +04° 53' 31.70" 1.000E-01 0.600 F 0.284 0.118 19.2 V 0.70 -0.06 b 691 0.38 Yes Yes
2000NF5 O C 2000-11-28.15645 1.000E-05 00:25:54.340 1.500E-01 0.600 F 0.176 -0.037 +04° 53' 36.90" 1.000E-01 0.600 F 0.284 0.139 19.4 V 0.70 0.13 b 691 0.24 Yes Yes
2000WN63 O C 2000-11-28.18848 1.000E-05 03:01:20.830 1.500E-01 0.600 F -0.126 0.298 +17° 34' 33.00" 1.000E-01 0.600 F 0.377 0.200 22.1 V 0.70 1.02 b 691 0.60 Yes Yes

[1-200] [201-400] [401-600] [601-800] [801-1000] [1001-1200] [1201-1400] [1401-1600] [1601-1800] [1801-2000] [2001-2200] [2201-2400] [2401-2600] [2601-2800] [2801-3000] [3001-3200] [3201-3400] [3401-3600] [3601-3800] [3801-4000] [4001-4200] [4201-4400] [4401-4600] [4601-4800] [4801-5000] [5001-5200] [5201-5400] [5401-5600] [5601-5800] [5801-6000] [6001-6200] [6201-6400] [6401-6600] [6601-6800] [6801-7000] [7001-7200] [7201-7400] [7401-7600] [7601-7800] [7801-8000] [8001-8200] [8201-8400] [8401-8600] [8601-8800] [8801-9000] [9001-9200] [9201-9400] [9401-9600] [9601-9800] [9801-10000] [10001-10200] [10201-10400] [10401-10600] [10601-10800] [10801-11000] [11001-11200] [11201-11400] [11401-11600] [11601-11800] [11801-12000] [12001-12200] [12201-12400] [12401-12600] [12601-12800] [12801-13000] [13001-13200] [13201-13400] [13401-13600] [13601-13800] [13801-14000] [14001-14200] [14201-14400] [14401-14600] [14601-14800] [14801-15000] [15001-15200] [15201-15400] [15401-15600] [15601-15800] [15801-16000] [16001-16200] [16201-16400] [16401-16600] [16601-16800] [16801-17000] [17001-17200] [17201-17400] [17401-17600] [17601-17800] [17801-18000] [18001-18200] [18201-18400] [18401-18600] [18601-18800] [18801-19000] [19001-19200] [19201-19400] [19401-19600] [19601-19800] [19801-20000] [20001-20200] [20201-20400] [20401-20600] [20601-20800] [20801-21000] [21001-21200] [21201-21400] [21401-21600] [21601-21800] [21801-22000] [22001-22200] [22201-22400] [22401-22600] [22601-22800] [22801-23000] [23001-23200] [23201-23400] [23401-23600] [23601-23800] [23801-24000] [24001-24200] [24201-24400] [24401-24600] [24601-24800] [24801-25000] [25001-25200] [25201-25400] [25401-25600] [25601-25800] [25801-26000] [26001-26200] [26201-26400] [26401-26600] [26601-26800] [26801-27000] [27001-27200] [27201-27400] [27401-27600] [27601-27800] [27801-28000] [28001-28200] [28201-28400] [28401-28600] [28601-28800] [28801-29000] [29001-29200] [29201-29400] [29401-29600] [29601-29800] [29801-30000] [30001-30200] [30201-30400] [30401-30600] [30601-30800] [30801-31000] [31001-31200] [31201-31400] [31401-31600] [31601-31800] [31801-32000] [32001-32200] [32201-32400] [32401-32600] [32601-32800] [32801-33000] [33001-33200] [33201-33400] [33401-33600] [33601-33800] [33801-34000] [34001-34200] [34201-34400] [34401-34600] [34601-34800] [34801-35000] [35001-35200] [35201-35400] [35401-35600] [35601-35800] [35801-36000] [36001-36200] [36201-36400] [36401-36600] [36601-36800] [36801-37000] [37001-37200] [37201-37400] [37401-37600] [37601-37800] [37801-38000] [38001-38200] [38201-38400] [38401-38600] [38601-38800] [38801-39000] [39001-39200] [39201-39400] [39401-39600] [39601-39800] [39801-40000] [40001-40200] [40201-40400] [40401-40600] [40601-40800] [40801-41000] [41001-41200] [41201-41400] [41401-41600] [41601-41800] [41801-42000] [42001-42200] [42201-42400] [42401-42600] [42601-42800] [42801-43000] [43001-43200] [43201-43400] [43401-43600] [43601-43800] [43801-44000] [44001-44200] [44201-44400] [44401-44600] [44601-44800] [44801-45000] [45001-45200] [45201-45400] [45401-45600] [45601-45800] [45801-46000] [46001-46200] [46201-46400] [46401-46600] [46601-46800] [46801-47000] [47001-47200] [47201-47400] [47401-47600] [47601-47800] [47801-48000] [48001-48200] [48201-48400] [48401-48600] [48601-48800] [48801-49000] [49001-49200] [49201-49400] [49401-49600] [49601-49800] [49801-50000] [50001-50200] [50201-50388]